Terminal Aerodrome Forecast
Issued by NWS Houston/Galveston, TX

Home | Current Version | Previous Version | Text Only | Print | Product List | Glossary On
Versions: 1 2 3 4 5 6 7 8 9 10 11 12 13 14 15 16 17 18 19
000
FTUS44 KHGX 190537
TAFCLL
TAF
KCLL 190537Z 1906/2006 16007KT P6SM OVC040
     FM191400 14002KT P6SM BKN015 OVC025
     FM191800 16007KT P6SM OVC015
     FM192200 15008KT 6SM BR OVC008
     FM200400 14007KT 4SM BR OVC007=

USA.gov is the U.S. government's official web portal to all federal, state and local government web resources and services.